sensor_id;sensor_type;location;lat;lon;timestamp;temperature;humidity
17740;DHT22;8990;33.226;-97.150;2023-04-15T00:00:49;24.50;99.90
17740;DHT22;8990;33.226;-97.150;2023-04-15T00:03:19;24.50;99.90
17740;DHT22;8990;33.226;-97.150;2023-04-15T00:05:48;24.40;99.90
17740;DHT22;8990;33.226;-97.150;2023-04-15T00:08:17;24.40;99.90
17740;DHT22;8990;33.226;-97.150;2023-04-15T00:10:46;24.30;99.90
17740;DHT22;8990;33.226;-97.150;2023-04-15T00:13:17;24.20;99.90
17740;DHT22;8990;33.226;-97.150;2023-04-15T00:15:46;24.10;99.90
17740;DHT22;8990;33.226;-97.150;2023-04-15T00:18:15;24.10;99.90
17740;DHT22;8990;33.226;-97.150;2023-04-15T00:20:44;24.10;99.90
17740;DHT22;8990;33.226;-97.150;2023-04-15T00:23:13;24.00;99.90
17740;DHT22;8990;33.226;-97.150;2023-04-15T00:25:42;23.90;99.90
17740;DHT22;8990;33.226;-97.150;2023-04-15T00:28:11;23.90;99.90
17740;DHT22;8990;33.226;-97.150;2023-04-15T00:30:42;23.90;99.90
17740;DHT22;8990;33.226;-97.150;2023-04-15T00:33:12;23.80;99.90
17740;DHT22;8990;33.226;-97.150;2023-04-15T00:35:45;23.80;99.90
17740;DHT22;8990;33.226;-97.150;2023-04-15T00:38:14;23.80;99.90
17740;DHT22;8990;33.226;-97.150;2023-04-15T00:40:43;23.70;99.90
17740;DHT22;8990;33.226;-97.150;2023-04-15T00:43:13;23.60;99.90
17740;DHT22;8990;33.226;-97.150;2023-04-15T00:45:43;23.60;99.90
17740;DHT22;8990;33.226;-97.150;2023-04-15T00:48:13;23.50;99.90
17740;DHT22;8990;33.226;-97.150;2023-04-15T00:50:42;23.50;99.90
17740;DHT22;8990;33.226;-97.150;2023-04-15T00:53:11;23.30;99.90
17740;DHT22;8990;33.226;-97.150;2023-04-15T00:55:40;23.30;99.90
17740;DHT22;8990;33.226;-97.150;2023-04-15T00:58:10;23.30;99.90
17740;DHT22;8990;33.226;-97.150;2023-04-15T01:00:39;23.20;99.90
17740;DHT22;8990;33.226;-97.150;2023-04-15T01:03:10;23.20;99.90
17740;DHT22;8990;33.226;-97.150;2023-04-15T01:05:39;23.10;99.90
17740;DHT22;8990;33.226;-97.150;2023-04-15T01:08:08;23.10;99.90
17740;DHT22;8990;33.226;-97.150;2023-04-15T01:10:37;23.10;99.90
17740;DHT22;8990;33.226;-97.150;2023-04-15T01:13:06;23.00;99.90
17740;DHT22;8990;33.226;-97.150;2023-04-15T01:15:36;23.00;99.90
17740;DHT22;8990;33.226;-97.150;2023-04-15T01:18:05;23.00;99.90
17740;DHT22;8990;33.226;-97.150;2023-04-15T01:20:36;23.00;99.90
17740;DHT22;8990;33.226;-97.150;2023-04-15T01:23:05;23.00;99.90
17740;DHT22;8990;33.226;-97.150;2023-04-15T01:25:35;23.00;99.90
17740;DHT22;8990;33.226;-97.150;2023-04-15T01:28:05;22.90;99.90
17740;DHT22;8990;33.226;-97.150;2023-04-15T01:30:35;22.90;99.90
17740;DHT22;8990;33.226;-97.150;2023-04-15T01:33:05;22.80;99.90
17740;DHT22;8990;33.226;-97.150;2023-04-15T01:35:34;22.80;99.90
17740;DHT22;8990;33.226;-97.150;2023-04-15T01:38:06;22.80;99.90
17740;DHT22;8990;33.226;-97.150;2023-04-15T01:40:36;22.80;99.90
17740;DHT22;8990;33.226;-97.150;2023-04-15T01:43:05;22.80;99.90
17740;DHT22;8990;33.226;-97.150;2023-04-15T01:45:34;22.80;99.90
17740;DHT22;8990;33.226;-97.150;2023-04-15T01:48:04;22.80;99.90
17740;DHT22;8990;33.226;-97.150;2023-04-15T01:50:37;22.80;99.90
17740;DHT22;8990;33.226;-97.150;2023-04-15T01:53:06;22.80;99.90
17740;DHT22;8990;33.226;-97.150;2023-04-15T01:55:37;22.80;99.90
17740;DHT22;8990;33.226;-97.150;2023-04-15T01:58:06;22.70;99.90
17740;DHT22;8990;33.226;-97.150;2023-04-15T02:00:35;22.70;99.90
17740;DHT22;8990;33.226;-97.150;2023-04-15T02:03:04;22.70;99.90
17740;DHT22;8990;33.226;-97.150;2023-04-15T02:05:33;22.70;99.90
17740;DHT22;8990;33.226;-97.150;2023-04-15T02:08:04;22.60;99.90
17740;DHT22;8990;33.226;-97.150;2023-04-15T02:10:33;22.60;99.90
17740;DHT22;8990;33.226;-97.150;2023-04-15T02:13:03;22.60;99.90
17740;DHT22;8990;33.226;-97.150;2023-04-15T02:15:32;22.70;99.90
17740;DHT22;8990;33.226;-97.150;2023-04-15T02:18:01;22.70;99.90
17740;DHT22;8990;33.226;-97.150;2023-04-15T02:20:30;22.70;99.90
17740;DHT22;8990;33.226;-97.150;2023-04-15T02:22:59;22.60;99.90
17740;DHT22;8990;33.226;-97.150;2023-04-15T02:25:28;22.60;99.90
17740;DHT22;8990;33.226;-97.150;2023-04-15T02:27:57;22.60;99.90
17740;DHT22;8990;33.226;-97.150;2023-04-15T02:30:28;22.60;99.90
17740;DHT22;8990;33.226;-97.150;2023-04-15T02:32:56;22.50;99.90
17740;DHT22;8990;33.226;-97.150;2023-04-15T02:35:25;22.60;99.90
17740;DHT22;8990;33.226;-97.150;2023-04-15T02:37:56;22.60;99.90
17740;DHT22;8990;33.226;-97.150;2023-04-15T02:40:26;22.60;99.90
17740;DHT22;8990;33.226;-97.150;2023-04-15T02:42:54;22.60;99.90
17740;DHT22;8990;33.226;-97.150;2023-04-15T02:45:25;22.60;99.90
17740;DHT22;8990;33.226;-97.150;2023-04-15T02:47:55;22.70;99.90
17740;DHT22;8990;33.226;-97.150;2023-04-15T02:50:25;22.60;99.90
17740;DHT22;8990;33.226;-97.150;2023-04-15T02:52:54;22.60;99.90
17740;DHT22;8990;33.226;-97.150;2023-04-15T02:55:23;22.60;99.90
17740;DHT22;8990;33.226;-97.150;2023-04-15T02:57:52;22.60;99.90
17740;DHT22;8990;33.226;-97.150;2023-04-15T03:00:22;22.60;99.90
17740;DHT22;8990;33.226;-97.150;2023-04-15T03:02:56;22.50;99.90
17740;DHT22;8990;33.226;-97.150;2023-04-15T03:05:27;22.60;99.90
17740;DHT22;8990;33.226;-97.150;2023-04-15T03:07:56;22.70;99.90
17740;DHT22;8990;33.226;-97.150;2023-04-15T03:10:27;22.60;99.90
17740;DHT22;8990;33.226;-97.150;2023-04-15T03:12:56;22.60;99.90
17740;DHT22;8990;33.226;-97.150;2023-04-15T03:15:26;22.60;99.90
17740;DHT22;8990;33.226;-97.150;2023-04-15T03:17:55;22.60;99.90
17740;DHT22;8990;33.226;-97.150;2023-04-15T03:20:24;22.60;99.90
17740;DHT22;8990;33.226;-97.150;2023-04-15T03:22:54;22.70;99.90
17740;DHT22;8990;33.226;-97.150;2023-04-15T03:25:25;22.60;99.90
17740;DHT22;8990;33.226;-97.150;2023-04-15T03:27:54;22.60;99.90
17740;DHT22;8990;33.226;-97.150;2023-04-15T03:30:25;22.50;99.90
17740;DHT22;8990;33.226;-97.150;2023-04-15T03:32:53;22.50;99.90
17740;DHT22;8990;33.226;-97.150;2023-04-15T03:35:23;22.50;99.90
17740;DHT22;8990;33.226;-97.150;2023-04-15T03:37:53;22.50;99.90
17740;DHT22;8990;33.226;-97.150;2023-04-15T03:40:23;22.50;99.90
17740;DHT22;8990;33.226;-97.150;2023-04-15T03:42:52;22.40;99.90
17740;DHT22;8990;33.226;-97.150;2023-04-15T03:45:21;22.40;99.90
17740;DHT22;8990;33.226;-97.150;2023-04-15T03:47:50;22.40;99.90
17740;DHT22;8990;33.226;-97.150;2023-04-15T03:50:19;22.50;99.90
17740;DHT22;8990;33.226;-97.150;2023-04-15T03:52:48;22.30;99.90
17740;DHT22;8990;33.226;-97.150;2023-04-15T03:55:19;22.30;99.90
17740;DHT22;8990;33.226;-97.150;2023-04-15T03:57:48;22.30;99.90
17740;DHT22;8990;33.226;-97.150;2023-04-15T04:00:16;22.40;99.90
17740;DHT22;8990;33.226;-97.150;2023-04-15T04:02:45;22.30;99.90
17740;DHT22;8990;33.226;-97.150;2023-04-15T04:05:14;22.40;99.90
17740;DHT22;8990;33.226;-97.150;2023-04-15T04:07:43;22.40;99.90
17740;DHT22;8990;33.226;-97.150;2023-04-15T04:10:12;22.50;99.90
17740;DHT22;8990;33.226;-97.150;2023-04-15T04:12:43;22.50;99.90
17740;DHT22;8990;33.226;-97.150;2023-04-15T04:15:12;22.40;99.90
17740;DHT22;8990;33.226;-97.150;2023-04-15T04:17:41;22.40;99.90
17740;DHT22;8990;33.226;-97.150;2023-04-15T04:20:10;22.40;99.90
17740;DHT22;8990;33.226;-97.150;2023-04-15T04:22:39;22.40;99.90
17740;DHT22;8990;33.226;-97.150;2023-04-15T04:25:09;22.40;99.90
17740;DHT22;8990;33.226;-97.150;2023-04-15T04:27:37;22.40;99.90
17740;DHT22;8990;33.226;-97.150;2023-04-15T04:30:09;22.40;99.90
17740;DHT22;8990;33.226;-97.150;2023-04-15T04:32:39;22.40;99.90
17740;DHT22;8990;33.226;-97.150;2023-04-15T04:35:10;22.40;99.90
17740;DHT22;8990;33.226;-97.150;2023-04-15T04:37:39;22.40;99.90
17740;DHT22;8990;33.226;-97.150;2023-04-15T04:40:09;22.40;99.90
17740;DHT22;8990;33.226;-97.150;2023-04-15T04:42:38;22.40;99.90
17740;DHT22;8990;33.226;-97.150;2023-04-15T04:45:09;22.40;99.90
17740;DHT22;8990;33.226;-97.150;2023-04-15T04:47:38;22.50;99.90
17740;DHT22;8990;33.226;-97.150;2023-04-15T04:50:08;22.40;99.90
17740;DHT22;8990;33.226;-97.150;2023-04-15T04:52:37;22.40;99.90
17740;DHT22;8990;33.226;-97.150;2023-04-15T04:55:07;22.40;99.90
17740;DHT22;8990;33.226;-97.150;2023-04-15T04:57:36;22.40;99.90
17740;DHT22;8990;33.226;-97.150;2023-04-15T05:00:06;22.30;99.90
17740;DHT22;8990;33.226;-97.150;2023-04-15T05:02:37;22.40;99.90
17740;DHT22;8990;33.226;-97.150;2023-04-15T05:05:08;22.30;99.90
17740;DHT22;8990;33.226;-97.150;2023-04-15T05:07:37;22.30;99.90
17740;DHT22;8990;33.226;-97.150;2023-04-15T05:10:07;22.30;99.90
17740;DHT22;8990;33.226;-97.150;2023-04-15T05:12:36;22.30;99.90
17740;DHT22;8990;33.226;-97.150;2023-04-15T05:15:06;22.30;99.90
17740;DHT22;8990;33.226;-97.150;2023-04-15T05:17:37;22.30;99.90
17740;DHT22;8990;33.226;-97.150;2023-04-15T05:20:07;22.30;99.90
17740;DHT22;8990;33.226;-97.150;2023-04-15T05:22:37;22.20;99.90
17740;DHT22;8990;33.226;-97.150;2023-04-15T05:25:07;22.20;99.90
17740;DHT22;8990;33.226;-97.150;2023-04-15T05:27:36;22.20;99.90
17740;DHT22;8990;33.226;-97.150;2023-04-15T05:30:06;22.20;99.90
17740;DHT22;8990;33.226;-97.150;2023-04-15T05:32:37;22.10;99.90
17740;DHT22;8990;33.226;-97.150;2023-04-15T05:35:07;22.20;99.90
17740;DHT22;8990;33.226;-97.150;2023-04-15T05:37:35;22.20;99.90
17740;DHT22;8990;33.226;-97.150;2023-04-15T05:40:05;22.10;99.90
17740;DHT22;8990;33.226;-97.150;2023-04-15T05:42:36;22.10;99.90
17740;DHT22;8990;33.226;-97.150;2023-04-15T05:45:06;22.10;99.90
17740;DHT22;8990;33.226;-97.150;2023-04-15T05:47:37;22.00;99.90
17740;DHT22;8990;33.226;-97.150;2023-04-15T05:50:06;22.00;99.90
17740;DHT22;8990;33.226;-97.150;2023-04-15T05:52:35;22.00;99.90
17740;DHT22;8990;33.226;-97.150;2023-04-15T05:55:05;21.90;99.90
17740;DHT22;8990;33.226;-97.150;2023-04-15T05:57:34;22.00;99.90
17740;DHT22;8990;33.226;-97.150;2023-04-15T06:00:04;22.00;99.90
17740;DHT22;8990;33.226;-97.150;2023-04-15T06:02:37;22.00;99.90
17740;DHT22;8990;33.226;-97.150;2023-04-15T06:05:07;22.00;99.90
17740;DHT22;8990;33.226;-97.150;2023-04-15T06:07:38;22.00;99.90
17740;DHT22;8990;33.226;-97.150;2023-04-15T06:10:07;22.00;99.90
17740;DHT22;8990;33.226;-97.150;2023-04-15T06:12:37;22.00;99.90
17740;DHT22;8990;33.226;-97.150;2023-04-15T06:15:06;22.00;99.90
17740;DHT22;8990;33.226;-97.150;2023-04-15T06:17:38;21.90;99.90
17740;DHT22;8990;33.226;-97.150;2023-04-15T06:20:09;22.00;99.90
17740;DHT22;8990;33.226;-97.150;2023-04-15T06:22:38;22.00;99.90
17740;DHT22;8990;33.226;-97.150;2023-04-15T06:25:08;22.00;99.90
17740;DHT22;8990;33.226;-97.150;2023-04-15T06:27:37;22.00;99.90
17740;DHT22;8990;33.226;-97.150;2023-04-15T06:30:06;21.90;99.90
17740;DHT22;8990;33.226;-97.150;2023-04-15T06:32:37;22.00;99.90
17740;DHT22;8990;33.226;-97.150;2023-04-15T06:35:06;21.80;99.90
17740;DHT22;8990;33.226;-97.150;2023-04-15T06:37:35;21.80;99.90
17740;DHT22;8990;33.226;-97.150;2023-04-15T06:40:05;21.80;99.90
17740;DHT22;8990;33.226;-97.150;2023-04-15T06:42:34;21.80;99.90
17740;DHT22;8990;33.226;-97.150;2023-04-15T06:45:04;21.80;99.90
17740;DHT22;8990;33.226;-97.150;2023-04-15T06:47:34;21.70;99.90
17740;DHT22;8990;33.226;-97.150;2023-04-15T06:50:05;21.70;99.90
17740;DHT22;8990;33.226;-97.150;2023-04-15T06:52:35;21.70;99.90
17740;DHT22;8990;33.226;-97.150;2023-04-15T06:55:05;21.70;99.90
17740;DHT22;8990;33.226;-97.150;2023-04-15T06:57:33;21.70;99.90
17740;DHT22;8990;33.226;-97.150;2023-04-15T07:00:03;21.70;99.90
17740;DHT22;8990;33.226;-97.150;2023-04-15T07:02:32;21.70;99.90
17740;DHT22;8990;33.226;-97.150;2023-04-15T07:05:01;21.70;99.90
17740;DHT22;8990;33.226;-97.150;2023-04-15T07:07:32;21.70;99.90
17740;DHT22;8990;33.226;-97.150;2023-04-15T07:10:00;21.70;99.90
17740;DHT22;8990;33.226;-97.150;2023-04-15T07:12:29;21.70;99.90
17740;DHT22;8990;33.226;-97.150;2023-04-15T07:14:59;21.70;99.90
17740;DHT22;8990;33.226;-97.150;2023-04-15T07:17:28;21.70;99.90
17740;DHT22;8990;33.226;-97.150;2023-04-15T07:19:57;21.70;99.90
17740;DHT22;8990;33.226;-97.150;2023-04-15T07:22:26;21.70;99.90
17740;DHT22;8990;33.226;-97.150;2023-04-15T07:24:56;21.70;99.90
17740;DHT22;8990;33.226;-97.150;2023-04-15T07:27:25;21.70;99.90
17740;DHT22;8990;33.226;-97.150;2023-04-15T07:29:54;21.70;99.90
17740;DHT22;8990;33.226;-97.150;2023-04-15T07:32:22;21.60;99.90
17740;DHT22;8990;33.226;-97.150;2023-04-15T07:34:51;21.60;99.90
17740;DHT22;8990;33.226;-97.150;2023-04-15T07:37:20;21.60;99.90
17740;DHT22;8990;33.226;-97.150;2023-04-15T07:39:49;21.50;99.90
17740;DHT22;8990;33.226;-97.150;2023-04-15T07:42:20;21.50;99.90
17740;DHT22;8990;33.226;-97.150;2023-04-15T07:44:49;21.50;99.90
17740;DHT22;8990;33.226;-97.150;2023-04-15T07:47:19;21.50;99.90
17740;DHT22;8990;33.226;-97.150;2023-04-15T07:49:47;21.50;99.90
17740;DHT22;8990;33.226;-97.150;2023-04-15T07:52:17;21.40;99.90
17740;DHT22;8990;33.226;-97.150;2023-04-15T07:54:46;21.40;99.90
17740;DHT22;8990;33.226;-97.150;2023-04-15T07:57:15;21.40;99.90
17740;DHT22;8990;33.226;-97.150;2023-04-15T07:59:45;21.40;99.90
17740;DHT22;8990;33.226;-97.150;2023-04-15T08:02:15;21.40;99.90
17740;DHT22;8990;33.226;-97.150;2023-04-15T08:04:44;21.30;99.90
17740;DHT22;8990;33.226;-97.150;2023-04-15T08:07:13;21.30;99.90
17740;DHT22;8990;33.226;-97.150;2023-04-15T08:09:42;21.30;99.90
17740;DHT22;8990;33.226;-97.150;2023-04-15T08:12:12;21.20;99.90
17740;DHT22;8990;33.226;-97.150;2023-04-15T08:14:41;21.30;99.90
17740;DHT22;8990;33.226;-97.150;2023-04-15T08:17:11;21.30;99.90
17740;DHT22;8990;33.226;-97.150;2023-04-15T08:19:40;21.30;99.90
17740;DHT22;8990;33.226;-97.150;2023-04-15T08:22:09;21.20;99.90
17740;DHT22;8990;33.226;-97.150;2023-04-15T08:24:39;21.20;99.90
17740;DHT22;8990;33.226;-97.150;2023-04-15T08:27:08;21.20;99.90
17740;DHT22;8990;33.226;-97.150;2023-04-15T08:29:36;21.20;99.90
17740;DHT22;8990;33.226;-97.150;2023-04-15T08:32:06;21.30;99.90
17740;DHT22;8990;33.226;-97.150;2023-04-15T08:34:38;21.20;99.90
17740;DHT22;8990;33.226;-97.150;2023-04-15T08:37:07;21.30;99.90
17740;DHT22;8990;33.226;-97.150;2023-04-15T08:39:35;21.30;99.90
17740;DHT22;8990;33.226;-97.150;2023-04-15T08:42:07;21.30;99.90
17740;DHT22;8990;33.226;-97.150;2023-04-15T08:44:39;21.30;99.90
17740;DHT22;8990;33.226;-97.150;2023-04-15T08:47:12;21.30;99.90
17740;DHT22;8990;33.226;-97.150;2023-04-15T08:49:43;21.30;99.90
17740;DHT22;8990;33.226;-97.150;2023-04-15T08:52:12;21.30;99.90
17740;DHT22;8990;33.226;-97.150;2023-04-15T08:54:41;21.30;99.90
17740;DHT22;8990;33.226;-97.150;2023-04-15T08:57:11;21.40;99.90
17740;DHT22;8990;33.226;-97.150;2023-04-15T08:59:41;21.30;99.90
17740;DHT22;8990;33.226;-97.150;2023-04-15T09:02:11;21.30;99.90
17740;DHT22;8990;33.226;-97.150;2023-04-15T09:04:42;21.30;99.90
17740;DHT22;8990;33.226;-97.150;2023-04-15T09:07:11;21.20;99.90
17740;DHT22;8990;33.226;-97.150;2023-04-15T09:09:40;21.10;99.90
17740;DHT22;8990;33.226;-97.150;2023-04-15T09:12:10;21.10;99.90
17740;DHT22;8990;33.226;-97.150;2023-04-15T09:14:39;21.10;99.90
17740;DHT22;8990;33.226;-97.150;2023-04-15T09:17:09;21.10;99.90
17740;DHT22;8990;33.226;-97.150;2023-04-15T09:19:39;21.10;99.90
17740;DHT22;8990;33.226;-97.150;2023-04-15T09:22:09;21.20;99.90
17740;DHT22;8990;33.226;-97.150;2023-04-15T09:24:39;21.10;99.90
17740;DHT22;8990;33.226;-97.150;2023-04-15T09:27:09;21.10;99.90
17740;DHT22;8990;33.226;-97.150;2023-04-15T09:29:39;21.10;99.90
17740;DHT22;8990;33.226;-97.150;2023-04-15T09:32:12;21.10;99.90
17740;DHT22;8990;33.226;-97.150;2023-04-15T09:34:42;21.00;99.90
17740;DHT22;8990;33.226;-97.150;2023-04-15T09:37:13;21.10;99.90
17740;DHT22;8990;33.226;-97.150;2023-04-15T09:39:46;21.10;99.90
17740;DHT22;8990;33.226;-97.150;2023-04-15T09:42:16;21.00;99.90
17740;DHT22;8990;33.226;-97.150;2023-04-15T09:44:50;21.00;99.90
17740;DHT22;8990;33.226;-97.150;2023-04-15T09:47:29;21.00;99.90
17740;DHT22;8990;33.226;-97.150;2023-04-15T09:49:59;20.90;99.90
17740;DHT22;8990;33.226;-97.150;2023-04-15T09:52:29;21.00;99.90
17740;DHT22;8990;33.226;-97.150;2023-04-15T09:54:59;21.00;99.90
17740;DHT22;8990;33.226;-97.150;2023-04-15T09:57:34;21.00;99.90
17740;DHT22;8990;33.226;-97.150;2023-04-15T10:00:04;20.90;99.90
17740;DHT22;8990;33.226;-97.150;2023-04-15T10:02:35;21.00;99.90
17740;DHT22;8990;33.226;-97.150;2023-04-15T10:05:07;20.90;99.90
17740;DHT22;8990;33.226;-97.150;2023-04-15T10:07:40;20.90;99.90
17740;DHT22;8990;33.226;-97.150;2023-04-15T10:10:10;20.90;99.90
17740;DHT22;8990;33.226;-97.150;2023-04-15T10:12:40;20.80;99.90
17740;DHT22;8990;33.226;-97.150;2023-04-15T10:15:16;20.90;99.90
17740;DHT22;8990;33.226;-97.150;2023-04-15T10:17:47;20.90;99.90
17740;DHT22;8990;33.226;-97.150;2023-04-15T10:20:19;20.90;99.90
17740;DHT22;8990;33.226;-97.150;2023-04-15T10:22:50;20.90;99.90
17740;DHT22;8990;33.226;-97.150;2023-04-15T10:25:21;20.90;99.90
17740;DHT22;8990;33.226;-97.150;2023-04-15T10:27:50;20.90;99.90
17740;DHT22;8990;33.226;-97.150;2023-04-15T10:30:20;20.80;99.90
17740;DHT22;8990;33.226;-97.150;2023-04-15T10:32:49;20.80;99.90
17740;DHT22;8990;33.226;-97.150;2023-04-15T10:35:21;20.90;99.90
17740;DHT22;8990;33.226;-97.150;2023-04-15T10:37:51;20.90;99.90
17740;DHT22;8990;33.226;-97.150;2023-04-15T10:40:27;20.90;99.90
17740;DHT22;8990;33.226;-97.150;2023-04-15T10:42:58;20.80;99.90
17740;DHT22;8990;33.226;-97.150;2023-04-15T10:45:30;20.80;99.90
17740;DHT22;8990;33.226;-97.150;2023-04-15T10:48:02;20.80;99.90
17740;DHT22;8990;33.226;-97.150;2023-04-15T10:50:33;20.70;99.90
17740;DHT22;8990;33.226;-97.150;2023-04-15T10:53:04;20.70;99.90
17740;DHT22;8990;33.226;-97.150;2023-04-15T10:55:33;20.70;99.90
17740;DHT22;8990;33.226;-97.150;2023-04-15T10:58:02;20.80;99.90
17740;DHT22;8990;33.226;-97.150;2023-04-15T11:00:32;20.70;99.90
17740;DHT22;8990;33.226;-97.150;2023-04-15T11:03:06;20.70;99.90
17740;DHT22;8990;33.226;-97.150;2023-04-15T11:05:51;20.70;99.90
17740;DHT22;8990;33.226;-97.150;2023-04-15T11:08:55;20.70;99.90
17740;DHT22;8990;33.226;-97.150;2023-04-15T11:14:26;20.60;99.90
17740;DHT22;8990;33.226;-97.150;2023-04-15T11:16:55;20.60;99.90
17740;DHT22;8990;33.226;-97.150;2023-04-15T11:19:24;20.60;99.90
17740;DHT22;8990;33.226;-97.150;2023-04-15T11:21:53;20.60;99.90
17740;DHT22;8990;33.226;-97.150;2023-04-15T11:24:27;20.60;99.90
17740;DHT22;8990;33.226;-97.150;2023-04-15T11:26:57;20.60;99.90
17740;DHT22;8990;33.226;-97.150;2023-04-15T11:29:29;20.60;99.90
17740;DHT22;8990;33.226;-97.150;2023-04-15T11:32:05;20.60;99.90
17740;DHT22;8990;33.226;-97.150;2023-04-15T11:34:34;20.50;99.90
17740;DHT22;8990;33.226;-97.150;2023-04-15T11:37:04;20.60;99.90
17740;DHT22;8990;33.226;-97.150;2023-04-15T11:39:36;20.60;99.90
17740;DHT22;8990;33.226;-97.150;2023-04-15T11:42:16;20.50;99.90
17740;DHT22;8990;33.226;-97.150;2023-04-15T11:44:45;20.60;99.90
17740;DHT22;8990;33.226;-97.150;2023-04-15T11:47:22;20.60;99.90
17740;DHT22;8990;33.226;-97.150;2023-04-15T11:49:51;20.50;99.90
17740;DHT22;8990;33.226;-97.150;2023-04-15T11:52:20;20.60;99.90
17740;DHT22;8990;33.226;-97.150;2023-04-15T11:55:02;20.60;99.90
17740;DHT22;8990;33.226;-97.150;2023-04-15T11:57:31;20.60;99.90
17740;DHT22;8990;33.226;-97.150;2023-04-15T12:00:00;20.60;99.90
17740;DHT22;8990;33.226;-97.150;2023-04-15T12:02:35;20.70;99.90
17740;DHT22;8990;33.226;-97.150;2023-04-15T12:05:05;20.70;99.90
17740;DHT22;8990;33.226;-97.150;2023-04-15T12:07:56;20.60;99.90
17740;DHT22;8990;33.226;-97.150;2023-04-15T12:10:30;20.60;99.90
17740;DHT22;8990;33.226;-97.150;2023-04-15T12:12:59;20.60;99.90
17740;DHT22;8990;33.226;-97.150;2023-04-15T12:15:28;20.60;99.90
17740;DHT22;8990;33.226;-97.150;2023-04-15T12:17:57;20.60;99.90
17740;DHT22;8990;33.226;-97.150;2023-04-15T12:20:26;20.60;99.90
17740;DHT22;8990;33.226;-97.150;2023-04-15T12:23:05;20.60;99.90
17740;DHT22;8990;33.226;-97.150;2023-04-15T12:25:36;20.60;99.90
17740;DHT22;8990;33.226;-97.150;2023-04-15T12:28:10;20.50;99.90
17740;DHT22;8990;33.226;-97.150;2023-04-15T12:30:48;20.50;99.90
17740;DHT22;8990;33.226;-97.150;2023-04-15T12:33:19;20.50;99.90
17740;DHT22;8990;33.226;-97.150;2023-04-15T12:35:48;20.60;99.90
17740;DHT22;8990;33.226;-97.150;2023-04-15T12:38:17;20.50;99.90
17740;DHT22;8990;33.226;-97.150;2023-04-15T12:40:48;20.60;99.90
17740;DHT22;8990;33.226;-97.150;2023-04-15T12:43:17;20.50;99.90
17740;DHT22;8990;33.226;-97.150;2023-04-15T12:45:46;20.50;99.90
17740;DHT22;8990;33.226;-97.150;2023-04-15T12:48:15;20.60;99.90
17740;DHT22;8990;33.226;-97.150;2023-04-15T12:50:44;20.70;99.90
17740;DHT22;8990;33.226;-97.150;2023-04-15T12:53:13;20.70;99.90
17740;DHT22;8990;33.226;-97.150;2023-04-15T12:55:42;20.70;99.90
17740;DHT22;8990;33.226;-97.150;2023-04-15T12:58:14;20.80;99.90
17740;DHT22;8990;33.226;-97.150;2023-04-15T13:00:43;20.90;99.90
17740;DHT22;8990;33.226;-97.150;2023-04-15T13:03:13;21.00;99.90
17740;DHT22;8990;33.226;-97.150;2023-04-15T13:05:42;21.00;99.90
17740;DHT22;8990;33.226;-97.150;2023-04-15T13:08:11;21.10;99.90
17740;DHT22;8990;33.226;-97.150;2023-04-15T13:10:40;21.10;99.90
17740;DHT22;8990;33.226;-97.150;2023-04-15T13:13:09;21.20;99.90
17740;DHT22;8990;33.226;-97.150;2023-04-15T13:15:40;21.30;99.90
17740;DHT22;8990;33.226;-97.150;2023-04-15T13:18:11;21.30;99.90
17740;DHT22;8990;33.226;-97.150;2023-04-15T13:20:40;21.40;99.90
17740;DHT22;8990;33.226;-97.150;2023-04-15T13:23:09;21.50;99.90
17740;DHT22;8990;33.226;-97.150;2023-04-15T13:25:38;21.60;99.90
17740;DHT22;8990;33.226;-97.150;2023-04-15T13:28:07;21.70;99.90
17740;DHT22;8990;33.226;-97.150;2023-04-15T13:30:36;21.80;99.90
17740;DHT22;8990;33.226;-97.150;2023-04-15T13:33:07;21.90;99.90
17740;DHT22;8990;33.226;-97.150;2023-04-15T13:35:36;22.10;99.90
17740;DHT22;8990;33.226;-97.150;2023-04-15T13:38:06;22.20;99.90
17740;DHT22;8990;33.226;-97.150;2023-04-15T13:40:35;22.30;99.90
17740;DHT22;8990;33.226;-97.150;2023-04-15T13:43:04;22.40;99.90
17740;DHT22;8990;33.226;-97.150;2023-04-15T13:45:33;22.60;99.90
17740;DHT22;8990;33.226;-97.150;2023-04-15T13:48:02;22.70;99.90
17740;DHT22;8990;33.226;-97.150;2023-04-15T13:50:34;22.80;99.90
17740;DHT22;8990;33.226;-97.150;2023-04-15T13:53:03;22.80;99.90
17740;DHT22;8990;33.226;-97.150;2023-04-15T13:55:31;22.90;99.90
17740;DHT22;8990;33.226;-97.150;2023-04-15T13:58:00;23.00;99.90
17740;DHT22;8990;33.226;-97.150;2023-04-15T14:00:30;23.00;99.90
17740;DHT22;8990;33.226;-97.150;2023-04-15T14:02:59;23.10;99.90
17740;DHT22;8990;33.226;-97.150;2023-04-15T14:05:27;23.10;99.90
17740;DHT22;8990;33.226;-97.150;2023-04-15T14:07:58;23.10;99.90
17740;DHT22;8990;33.226;-97.150;2023-04-15T14:10:27;23.20;99.90
17740;DHT22;8990;33.226;-97.150;2023-04-15T14:12:56;23.20;99.90
17740;DHT22;8990;33.226;-97.150;2023-04-15T14:15:25;23.30;99.90
17740;DHT22;8990;33.226;-97.150;2023-04-15T14:17:54;23.60;99.90
17740;DHT22;8990;33.226;-97.150;2023-04-15T14:20:23;23.60;99.90
17740;DHT22;8990;33.226;-97.150;2023-04-15T14:22:52;23.80;99.90
17740;DHT22;8990;33.226;-97.150;2023-04-15T14:25:22;23.90;99.90
17740;DHT22;8990;33.226;-97.150;2023-04-15T14:27:51;23.90;99.90
17740;DHT22;8990;33.226;-97.150;2023-04-15T14:30:21;23.80;99.90
17740;DHT22;8990;33.226;-97.150;2023-04-15T14:32:49;23.90;99.90
17740;DHT22;8990;33.226;-97.150;2023-04-15T14:35:18;23.80;99.90
17740;DHT22;8990;33.226;-97.150;2023-04-15T14:37:48;23.80;99.90
17740;DHT22;8990;33.226;-97.150;2023-04-15T14:40:17;23.70;99.90
17740;DHT22;8990;33.226;-97.150;2023-04-15T14:42:48;23.90;99.90
17740;DHT22;8990;33.226;-97.150;2023-04-15T14:45:17;23.90;99.90
17740;DHT22;8990;33.226;-97.150;2023-04-15T14:47:46;23.90;99.90
17740;DHT22;8990;33.226;-97.150;2023-04-15T14:50:15;24.10;99.90
17740;DHT22;8990;33.226;-97.150;2023-04-15T14:52:45;24.20;99.90
17740;DHT22;8990;33.226;-97.150;2023-04-15T14:55:14;24.30;99.90
17740;DHT22;8990;33.226;-97.150;2023-04-15T14:57:42;24.30;99.90
17740;DHT22;8990;33.226;-97.150;2023-04-15T15:00:14;24.30;99.90
17740;DHT22;8990;33.226;-97.150;2023-04-15T15:02:43;24.20;99.90
17740;DHT22;8990;33.226;-97.150;2023-04-15T15:05:13;24.10;99.90
17740;DHT22;8990;33.226;-97.150;2023-04-15T15:07:42;24.00;99.90
17740;DHT22;8990;33.226;-97.150;2023-04-15T15:10:11;24.10;99.90
17740;DHT22;8990;33.226;-97.150;2023-04-15T15:12:40;24.20;99.90
17740;DHT22;8990;33.226;-97.150;2023-04-15T15:15:09;24.10;99.90
17740;DHT22;8990;33.226;-97.150;2023-04-15T15:17:39;23.90;99.90
17740;DHT22;8990;33.226;-97.150;2023-04-15T15:20:09;23.70;99.90
17740;DHT22;8990;33.226;-97.150;2023-04-15T15:22:38;23.80;99.90
17740;DHT22;8990;33.226;-97.150;2023-04-15T15:25:07;23.90;99.90
17740;DHT22;8990;33.226;-97.150;2023-04-15T15:27:37;23.90;99.90
17740;DHT22;8990;33.226;-97.150;2023-04-15T15:30:07;23.70;99.90
17740;DHT22;8990;33.226;-97.150;2023-04-15T15:32:36;23.70;99.90
17740;DHT22;8990;33.226;-97.150;2023-04-15T15:35:08;23.70;99.90